Wednesday, May 23, 2018, 9:04 AM EDT
Back to Local

KORE, Orange, Orange Municipal Airport

Location: Orange, MA, United States Lat: 42.572
Local Time: 9:04 AM EDT (13:04 GMT) Lon: -72.278
Time Zone: US/Eastern Elev: 554 ft

Show me the last for .
Show Decoded

2018-05-23 08:52 METAR KORE 231252Z AUTO 34009KT 10SM FEW027 18/13 A2991 RMK AO2 SLP128 T01780133
                 =
2018-05-23 08:08 METAR KORE 231208Z AUTO 36003KT 10SM FEW024 OVC032 15/13 A2991 RMK AO2 T01500133
                 =
2018-05-23 07:52 METAR KORE 231152Z AUTO 00000KT 10SM OVC029 14/13 A2991 RMK AO2 SLP129 70003
                 T01440133 10144 20122 53007 =
2018-05-23 07:29 METAR KORE 231129Z AUTO 00000KT 10SM OVC028 14/13 A2991 RMK AO2 T01390128 =
2018-05-23 06:52 METAR KORE 231052Z AUTO 00000KT 10SM OVC047 14/13 A2990 RMK AO2 SLP127 T01390128
                 =
2018-05-23 05:52 METAR KORE 230952Z AUTO 19003KT 10SM FEW017 SCT025 OVC045 13/13 A2989 RMK AO2
                 SLP121 T01330128 =
2018-05-23 04:52 METAR KORE 230852Z AUTO 00000KT 10SM OVC017 13/13 A2989 RMK AO2 SLP121 T01330128
                 55005 =
2018-05-23 04:30 METAR KORE 230830Z AUTO 00000KT 10SM SCT007 OVC017 13/12 A2988 RMK AO2 T01280122
                 =
2018-05-23 03:52 METAR KORE 230752Z AUTO 21004KT 10SM OVC006 13/12 A2988 RMK AO2 SLP120 T01280122
                 =
2018-05-23 02:52 METAR KORE 230652Z AUTO 00000KT 10SM OVC006 13/13 A2989 RMK AO2 SLP121 T01280128
                 =
2018-05-23 01:52 METAR KORE 230552Z AUTO 19005KT 10SM OVC006 12/12 A2990 RMK AO2 SLP127 T01220122
                 10133 20122 58022 =
2018-05-23 00:52 METAR KORE 230452Z AUTO 21005KT 10SM OVC007 12/12 A2993 RMK AO2 SLP136 T01220117
                 401780083 =
2018-05-23 00:11 METAR KORE 230411Z AUTO 19007KT 10SM OVC009 12/11 A2994 RMK AO2 T01220111 =
2018-05-22 23:52 METAR KORE 230352Z AUTO 20005KT 10SM OVC010 12/11 A2995 RMK AO2 SLP142 T01220111
                 =
2018-05-22 22:52 METAR KORE 230252Z AUTO 19005KT 10SM OVC014 12/11 A2997 RMK AO2 SLP151 T01220106
                 56012 =
2018-05-22 21:52 METAR KORE 230152Z AUTO 18006KT 10SM OVC019 12/10 A2997 RMK AO2 SLP152 T01220100
                 =
2018-05-22 21:14 METAR KORE 230114Z AUTO 19005KT 10SM BKN028 OVC033 13/09 A2999 RMK AO2 T01280094
                 =
2018-05-22 20:52 METAR KORE 230052Z AUTO 19007KT 10SM SCT034 OVC044 13/09 A3000 RMK AO2 SLP161
                 T01280094 =
2018-05-22 19:52 METAR KORE 222352Z AUTO 18010KT 10SM FEW027 FEW039 OVC050 13/09 A3001 RMK AO2
                 RAE05 SLP163 P0000 60001 T01330089 10172 20133 56023 =
2018-05-22 18:52 METAR KORE 222252Z AUTO 20010G21KT 10SM -RA SCT043 BKN100 BKN120 14/10 A3003 RMK
                 AO2 RAB28 SLP172 P0000 T01390100 =
2018-05-22 17:52 METAR KORE 222152Z AUTO 18011KT 10SM SCT065 OVC110 15/11 A3004 RMK AO2 SLP175
                 P0001 T01500106 =
2018-05-22 16:52 METAR KORE 222052Z AUTO 21004KT 10SM OVC060 16/13 A3008 RMK AO2 RAE50 SLP186
                 P0000 60000 T01560133 56019 =
2018-05-22 15:52 METAR KORE 221952Z AUTO 17004KT 10SM -RA OVC065 17/13 A3008 RMK AO2 RAB17 SLP188
                 P0000 T01670133 =
2018-05-22 14:52 METAR KORE 221852Z AUTO 18009KT 10SM FEW035 OVC070 17/13 A3010 RMK AO2 RAE36
                 SLP194 P0000 T01670128 =
2018-05-22 13:52 METAR KORE 221752Z AUTO 18006KT 10SM -RA OVC090 17/13 A3013 RMK AO2 RAB01 SLP205
                 P0000 60002 T01670133 10178 20117 56012 =
2018-05-22 12:52 METAR KORE 221652Z AUTO 19003KT 10SM FEW070 BKN085 OVC100 17/13 A3013 RMK AO2
                 SLP205 T01720133 =
2018-05-22 11:52 METAR KORE 221552Z AUTO 00000KT 10SM SCT075 OVC100 17/13 A3015 RMK AO2 RAE13
                 SLP212 P0000 T01670133 =
2018-05-22 10:52 METAR KORE 221452Z AUTO 00000KT 10SM -RA FEW070 OVC095 14/12 A3017 RMK AO2
                 RAE1358B40 SLP217 P0000 60002 T01440122 58009 =
2018-05-22 09:52 METAR KORE 221352Z AUTO 00000KT 10SM -RA BKN070 OVC085 13/12 A3018 RMK AO2
                 SLP221 P0002 T01280117 =

Support USWX by starting your Amazon purchase here.